createdAt,value
2022-09-20T00:00:42.591Z,1.80
2022-09-20T00:01:44.864Z,1.83
2022-09-20T00:02:47.071Z,1.87
2022-09-20T00:03:54.384Z,1.77
2022-09-20T00:04:56.671Z,1.90
2022-09-20T00:06:01.944Z,1.83
2022-09-20T00:07:04.185Z,1.70
2022-09-20T00:08:09.099Z,1.50
2022-09-20T00:09:11.240Z,1.50
2022-09-20T00:10:14.209Z,1.37
2022-09-20T00:11:21.603Z,1.50
2022-09-20T00:12:24.138Z,1.30
2022-09-20T00:13:26.288Z,1.27
2022-09-20T00:14:28.417Z,1.43
2022-09-20T00:15:31.024Z,1.20
2022-09-20T00:16:36.479Z,1.33
2022-09-20T00:17:38.677Z,1.33
2022-09-20T00:18:41.561Z,1.13
2022-09-20T00:19:43.700Z,1.20
2022-09-20T00:20:47.265Z,1.17
2022-09-20T00:21:49.610Z,1.20
2022-09-20T00:22:51.831Z,1.33
2022-09-20T00:23:54.302Z,1.30
2022-09-20T00:24:56.462Z,1.10
2022-09-20T00:26:04.049Z,1.30
2022-09-20T00:27:06.290Z,1.30
2022-09-20T00:28:09.422Z,1.40
2022-09-20T00:29:12.957Z,1.23
2022-09-20T00:30:15.467Z,1.50
2022-09-20T00:31:19.261Z,1.20
2022-09-20T00:32:21.474Z,1.37
2022-09-20T00:33:45.514Z,1.50
2022-09-20T00:35:06.255Z,1.40
2022-09-20T00:36:08.435Z,1.50
2022-09-20T00:37:10.634Z,1.40
2022-09-20T00:38:16.107Z,1.67
2022-09-20T00:39:18.304Z,1.70
2022-09-20T00:40:22.759Z,1.83
2022-09-20T00:41:25.467Z,1.60
2022-09-20T00:42:29.930Z,1.63
2022-09-20T00:43:44.800Z,1.53
2022-09-20T00:45:03.633Z,1.50
2022-09-20T00:46:16.624Z,1.40
2022-09-20T00:47:33.830Z,1.70
2022-09-20T00:48:36.005Z,1.60
2022-09-20T00:49:38.653Z,1.50
2022-09-20T00:50:53.711Z,1.60
2022-09-20T00:52:00.681Z,1.60
2022-09-20T00:53:09.233Z,1.70
2022-09-20T00:54:19.529Z,1.40
2022-09-20T00:55:22.888Z,1.70
2022-09-20T00:56:29.820Z,1.70
2022-09-20T00:57:35.397Z,1.57
2022-09-20T00:58:41.487Z,1.53
2022-09-20T00:59:48.058Z,1.50
2022-09-20T01:00:52.871Z,1.60
2022-09-20T01:02:18.099Z,1.50
2022-09-20T01:03:23.513Z,1.30
2022-09-20T01:04:35.949Z,1.60
2022-09-20T01:05:40.267Z,1.40
2022-09-20T01:06:46.090Z,1.37
2022-09-20T01:07:51.738Z,1.27
2022-09-20T01:08:56.579Z,1.60
2022-09-20T01:10:01.861Z,1.67
2022-09-20T01:11:04.367Z,1.50
2022-09-20T01:12:13.707Z,1.33
2022-09-20T01:13:15.951Z,1.20
2022-09-20T01:14:22.302Z,1.83
2022-09-20T01:15:28.056Z,1.40
2022-09-20T01:16:32.825Z,1.27
2022-09-20T01:17:37.791Z,1.43
2022-09-20T01:18:44.485Z,1.30
2022-09-20T01:20:10.601Z,1.40
2022-09-20T01:21:14.207Z,1.20
2022-09-20T01:22:25.294Z,1.60
2022-09-20T01:23:49.341Z,1.20
2022-09-20T01:24:59.073Z,1.20
2022-09-20T01:26:46.453Z,1.40
2022-09-20T01:27:52.384Z,1.30
2022-09-20T01:29:10.217Z,1.50
2022-09-20T01:30:18.453Z,1.53
2022-09-20T01:31:33.616Z,1.60
2022-09-20T01:33:00.760Z,1.30
2022-09-20T01:34:11.322Z,1.33
2022-09-20T01:35:16.733Z,1.43
2022-09-20T01:36:31.733Z,1.30
2022-09-20T01:37:52.621Z,1.40
2022-09-20T01:39:30.973Z,1.10
2022-09-20T01:40:43.281Z,1.30
2022-09-20T01:41:58.878Z,1.77
2022-09-20T01:43:26.651Z,1.10
2022-09-20T01:45:01.009Z,1.20
2022-09-20T01:46:31.583Z,1.17
2022-09-20T01:48:03.753Z,1.33
2022-09-20T01:49:31.015Z,1.20
2022-09-20T01:51:06.051Z,1.17
2022-09-20T01:52:11.202Z,1.10
2022-09-20T01:53:47.491Z,1.17
2022-09-20T01:54:58.922Z,1.20
2022-09-20T01:56:33.633Z,1.13
2022-09-20T01:58:01.481Z,1.10
2022-09-20T01:59:41.641Z,1.10
2022-09-20T02:01:23.505Z,1.20
2022-09-20T02:02:53.598Z,1.20
2022-09-20T02:04:30.242Z,1.20
2022-09-20T02:05:55.651Z,1.20
2022-09-20T02:07:22.515Z,1.20
2022-09-20T02:08:54.938Z,1.10
2022-09-20T02:10:27.608Z,1.40
2022-09-20T02:11:44.964Z,1.33
2022-09-20T02:12:56.065Z,1.10
2022-09-20T02:14:27.643Z,1.27
2022-09-20T02:16:07.179Z,1.20
2022-09-20T02:17:14.082Z,1.33
2022-09-20T02:18:37.354Z,1.20
2022-09-20T02:20:18.689Z,1.27
2022-09-20T02:21:33.424Z,1.10
2022-09-20T02:22:53.264Z,1.30
2022-09-20T02:24:11.971Z,1.20
2022-09-20T02:25:57.905Z,1.37
2022-09-20T02:27:24.096Z,1.40
2022-09-20T02:28:31.985Z,1.20
2022-09-20T02:29:50.299Z,1.40
2022-09-20T02:31:21.777Z,1.37
2022-09-20T02:32:46.021Z,1.50
2022-09-20T02:34:08.395Z,1.40
2022-09-20T02:35:19.851Z,1.30
2022-09-20T02:36:45.002Z,1.27
2022-09-20T02:37:57.433Z,1.43
2022-09-20T02:39:10.798Z,1.40
2022-09-20T02:40:31.802Z,1.30
2022-09-20T02:41:47.320Z,1.27
2022-09-20T02:43:10.161Z,1.67
2022-09-20T02:44:49.812Z,1.40
2022-09-20T02:46:18.047Z,2.63
2022-09-20T02:47:40.311Z,4.20
2022-09-20T02:48:48.624Z,5.53
2022-09-20T02:49:55.747Z,7.77
2022-09-20T02:51:21.497Z,8.70
2022-09-20T02:52:49.288Z,8.73
2022-09-20T02:54:00.629Z,8.47
2022-09-20T02:55:28.745Z,7.97
2022-09-20T02:56:47.740Z,6.47
2022-09-20T02:58:11.632Z,6.80
2022-09-20T02:59:47.316Z,6.13
2022-09-20T03:01:07.292Z,6.40
2022-09-20T03:02:16.357Z,6.37
2022-09-20T03:03:43.329Z,5.13
2022-09-20T03:05:33.669Z,4.50
2022-09-20T03:06:41.750Z,4.30
2022-09-20T03:08:04.620Z,4.37
2022-09-20T03:09:29.492Z,3.80
2022-09-20T03:10:50.491Z,4.03
2022-09-20T03:12:20.027Z,3.50
2022-09-20T03:13:30.933Z,3.60
2022-09-20T03:14:38.518Z,2.90
2022-09-20T03:16:07.120Z,2.60
2022-09-20T03:17:42.472Z,2.53
2022-09-20T03:19:00.328Z,2.30
2022-09-20T03:20:33.469Z,2.23
2022-09-20T03:21:59.847Z,2.00
2022-09-20T03:23:10.932Z,2.20
2022-09-20T03:25:01.350Z,2.00
2022-09-20T03:26:30.712Z,2.20
2022-09-20T03:27:46.109Z,1.70
2022-09-20T03:29:25.890Z,1.90
2022-09-20T03:30:42.886Z,1.70
2022-09-20T03:32:13.580Z,1.80
2022-09-20T03:33:43.912Z,1.70
2022-09-20T03:35:06.844Z,1.60
2022-09-20T03:36:47.330Z,1.90
2022-09-20T03:38:08.430Z,1.70
2022-09-20T03:39:22.753Z,1.80
2022-09-20T03:40:55.994Z,1.80
2022-09-20T03:42:19.909Z,2.30
2022-09-20T03:43:33.450Z,2.17
2022-09-20T03:45:02.312Z,2.10
2022-09-20T03:46:19.771Z,2.07
2022-09-20T03:48:02.872Z,2.50
2022-09-20T03:49:42.009Z,2.47
2022-09-20T03:51:06.017Z,2.40
2022-09-20T03:52:19.470Z,2.50
2022-09-20T03:53:42.327Z,2.63
2022-09-20T03:55:27.867Z,2.50
2022-09-20T03:57:05.147Z,2.53
2022-09-20T03:58:13.244Z,2.77
2022-09-20T03:59:32.040Z,2.90
2022-09-20T04:00:46.121Z,2.93
2022-09-20T04:02:06.868Z,3.20
2022-09-20T04:03:28.798Z,3.20
2022-09-20T04:04:57.597Z,2.67
2022-09-20T04:06:29.869Z,3.20
2022-09-20T04:07:40.726Z,3.20
2022-09-20T04:09:07.535Z,3.50
2022-09-20T04:10:33.844Z,3.30
2022-09-20T04:11:51.852Z,3.60
2022-09-20T04:13:03.344Z,3.70
2022-09-20T04:14:23.750Z,3.60
2022-09-20T04:15:46.283Z,3.30
2022-09-20T04:17:01.868Z,3.60
2022-09-20T04:18:19.534Z,3.43
2022-09-20T04:19:49.276Z,3.63
2022-09-20T04:20:59.061Z,3.43
2022-09-20T04:22:02.330Z,3.47
2022-09-20T04:23:18.004Z,3.47
2022-09-20T04:24:25.611Z,3.20
2022-09-20T04:25:40.698Z,3.43
2022-09-20T04:26:50.427Z,3.27
2022-09-20T04:28:02.089Z,3.40
2022-09-20T04:29:31.875Z,3.20
2022-09-20T04:30:44.093Z,3.30
2022-09-20T04:31:54.468Z,3.30
2022-09-20T04:33:02.226Z,3.13
2022-09-20T04:34:10.911Z,3.27
2022-09-20T04:35:46.917Z,3.20
2022-09-20T04:37:05.115Z,3.00
2022-09-20T04:38:15.268Z,2.93
2022-09-20T04:39:51.660Z,3.37
2022-09-20T04:41:31.994Z,3.10
2022-09-20T04:42:42.862Z,3.33
2022-09-20T04:43:58.483Z,3.10
2022-09-20T04:45:33.283Z,3.00
2022-09-20T04:47:13.168Z,3.47
2022-09-20T04:48:30.256Z,3.10
2022-09-20T04:49:55.888Z,2.90
2022-09-20T04:51:28.971Z,2.87
2022-09-20T04:53:04.722Z,2.60
2022-09-20T04:54:37.168Z,2.80
2022-09-20T04:56:03.186Z,2.87
2022-09-20T04:57:34.476Z,2.90
2022-09-20T04:59:04.486Z,2.67
2022-09-20T05:00:16.289Z,2.87
2022-09-20T05:02:10.627Z,3.30
2022-09-20T05:03:37.622Z,2.90
2022-09-20T05:05:01.947Z,3.10
2022-09-20T05:06:24.101Z,3.20
2022-09-20T05:07:38.448Z,3.97
2022-09-20T05:09:14.803Z,3.30
2022-09-20T05:10:50.006Z,4.00
2022-09-20T05:12:15.350Z,4.00
2022-09-20T05:13:57.414Z,3.97
2022-09-20T05:15:21.160Z,4.40
2022-09-20T05:16:36.041Z,4.07
2022-09-20T05:17:54.358Z,4.23
2022-09-20T05:19:07.595Z,4.27
2022-09-20T05:20:46.995Z,4.20
2022-09-20T05:22:16.516Z,4.20
2022-09-20T05:23:58.511Z,4.33
2022-09-20T05:25:28.288Z,4.00
2022-09-20T05:26:52.057Z,4.33
2022-09-20T05:28:25.076Z,4.50
2022-09-20T05:29:32.315Z,4.33
2022-09-20T05:30:43.776Z,4.27
2022-09-20T05:32:07.662Z,4.37
2022-09-20T05:33:23.944Z,4.20
2022-09-20T05:34:54.677Z,4.53
2022-09-20T05:36:34.924Z,4.63
2022-09-20T05:37:52.143Z,4.80
2022-09-20T05:39:31.852Z,4.63
2022-09-20T05:40:51.575Z,4.77
2022-09-20T05:42:02.741Z,5.10
2022-09-20T05:43:28.860Z,5.47
2022-09-20T05:44:53.236Z,5.20
2022-09-20T05:45:58.492Z,5.03
2022-09-20T05:47:27.127Z,5.43
2022-09-20T05:48:52.236Z,5.83
2022-09-20T05:50:26.826Z,5.57
2022-09-20T05:51:47.660Z,5.70
2022-09-20T05:53:14.497Z,5.80
2022-09-20T05:54:43.667Z,5.50
2022-09-20T05:56:03.147Z,6.20
2022-09-20T05:57:30.159Z,5.53
2022-09-20T05:58:35.113Z,5.60
2022-09-20T05:59:56.429Z,5.57
2022-09-20T06:01:04.566Z,5.70
2022-09-20T06:02:27.834Z,6.00
2022-09-20T06:03:47.419Z,5.47
2022-09-20T06:05:01.779Z,5.90
2022-09-20T06:06:06.882Z,5.67
2022-09-20T06:07:32.131Z,6.17
2022-09-20T06:08:58.080Z,5.90
2022-09-20T06:10:31.541Z,5.97
2022-09-20T06:11:45.739Z,5.97
2022-09-20T06:12:53.939Z,5.57
2022-09-20T06:14:05.307Z,5.30
2022-09-20T06:15:29.229Z,5.40
2022-09-20T06:16:35.323Z,5.30
2022-09-20T06:17:43.795Z,4.97
2022-09-20T06:18:54.707Z,5.07
2022-09-20T06:20:22.626Z,5.00
2022-09-20T06:21:50.738Z,5.17
2022-09-20T06:22:56.753Z,4.67
2022-09-20T06:24:00.845Z,5.27
2022-09-20T06:25:09.007Z,4.80
2022-09-20T06:26:18.091Z,4.67
2022-09-20T06:27:29.125Z,4.60
2022-09-20T06:28:37.185Z,4.80
2022-09-20T06:29:44.167Z,4.43
2022-09-20T06:30:54.969Z,4.30
2022-09-20T06:31:57.273Z,4.13
2022-09-20T06:33:20.966Z,5.00
2022-09-20T06:34:23.497Z,4.03
2022-09-20T06:35:35.674Z,4.10
2022-09-20T06:36:59.748Z,3.97
2022-09-20T06:38:45.845Z,4.00
2022-09-20T06:40:50.284Z,3.80
2022-09-20T06:41:53.806Z,3.90
2022-09-20T06:42:56.120Z,4.23
2022-09-20T06:44:00.986Z,4.07
2022-09-20T06:45:03.441Z,4.60
2022-09-20T06:46:05.985Z,4.47
2022-09-20T06:47:11.791Z,4.37
2022-09-20T06:48:15.642Z,4.37
2022-09-20T06:49:18.142Z,4.63
2022-09-20T06:50:20.504Z,4.23
2022-09-20T06:51:24.641Z,4.27
2022-09-20T06:52:26.925Z,4.70
2022-09-20T06:53:32.828Z,4.33
2022-09-20T06:54:35.101Z,4.47
2022-09-20T06:55:41.023Z,4.10
2022-09-20T06:56:45.628Z,4.90
2022-09-20T06:57:47.779Z,4.13
2022-09-20T06:58:50.076Z,4.00
2022-09-20T06:59:52.507Z,3.87
2022-09-20T07:00:54.837Z,4.43
2022-09-20T07:01:57.904Z,4.00
2022-09-20T07:03:00.148Z,4.60
2022-09-20T07:04:04.216Z,4.50
2022-09-20T07:05:08.097Z,4.40
2022-09-20T07:06:10.936Z,4.27
2022-09-20T07:07:18.159Z,4.80
2022-09-20T07:08:20.389Z,4.43
2022-09-20T07:09:22.631Z,4.57
2022-09-20T07:10:28.274Z,4.70
2022-09-20T07:11:35.036Z,4.60
2022-09-20T07:12:37.691Z,4.53
2022-09-20T07:13:39.827Z,4.83
2022-09-20T07:14:43.165Z,4.47
2022-09-20T07:15:45.383Z,5.13
2022-09-20T07:16:47.530Z,4.73
2022-09-20T07:17:51.146Z,5.00
2022-09-20T07:18:54.512Z,5.67
2022-09-20T07:19:57.249Z,5.17
2022-09-20T07:21:01.153Z,5.37
2022-09-20T07:22:03.663Z,5.63
2022-09-20T07:23:05.904Z,5.40
2022-09-20T07:24:08.066Z,5.40
2022-09-20T07:25:10.221Z,5.67
2022-09-20T07:26:35.243Z,5.10
2022-09-20T07:27:37.421Z,5.60
2022-09-20T07:28:39.539Z,5.70
2022-09-20T07:29:41.665Z,6.00
2022-09-20T07:30:44.275Z,5.90
2022-09-20T07:31:46.495Z,6.00
2022-09-20T07:32:48.877Z,6.20
2022-09-20T07:33:51.578Z,6.23
2022-09-20T07:34:54.103Z,6.10
2022-09-20T07:35:56.443Z,6.30
2022-09-20T07:37:00.039Z,6.30
2022-09-20T07:38:03.152Z,6.60
2022-09-20T07:39:05.352Z,6.70
2022-09-20T07:40:09.562Z,6.20
2022-09-20T07:41:11.768Z,6.70
2022-09-20T07:42:14.437Z,6.27
2022-09-20T07:43:16.579Z,6.57
2022-09-20T07:44:24.409Z,6.50
2022-09-20T07:45:26.646Z,6.40
2022-09-20T07:46:28.788Z,5.97
2022-09-20T07:47:35.489Z,6.07
2022-09-20T07:48:38.254Z,6.43
2022-09-20T07:49:40.596Z,6.60
2022-09-20T07:50:51.060Z,5.90
2022-09-20T07:51:54.573Z,6.47
2022-09-20T07:52:57.550Z,7.07
2022-09-20T07:53:59.702Z,7.40
2022-09-20T07:55:02.529Z,7.80
2022-09-20T07:56:14.243Z,8.53
2022-09-20T07:57:17.031Z,8.07
2022-09-20T07:58:19.172Z,7.63
2022-09-20T07:59:22.378Z,6.90
2022-09-20T08:00:24.625Z,6.57
2022-09-20T08:01:26.892Z,6.40
2022-09-20T08:02:29.197Z,6.23
2022-09-20T08:03:33.174Z,6.07
2022-09-20T08:04:35.370Z,6.00
2022-09-20T08:05:37.524Z,6.40
2022-09-20T08:06:42.446Z,5.47
2022-09-20T08:07:44.588Z,5.60
2022-09-20T08:08:47.455Z,5.67
2022-09-20T08:09:49.687Z,5.50
2022-09-20T08:10:51.874Z,5.43
2022-09-20T08:11:54.539Z,6.03
2022-09-20T08:14:19.179Z,5.50
2022-09-20T08:15:21.527Z,5.57
2022-09-20T08:16:24.137Z,5.20
2022-09-20T08:17:26.337Z,5.40
2022-09-20T08:18:28.496Z,5.17
2022-09-20T08:19:30.689Z,5.60
2022-09-20T08:20:37.145Z,5.47
2022-09-20T08:21:39.922Z,4.90
2022-09-20T08:22:43.418Z,5.00
2022-09-20T08:23:48.411Z,4.90
2022-09-20T08:24:52.023Z,4.57
2022-09-20T08:25:57.237Z,4.27
2022-09-20T08:26:59.358Z,4.03
2022-09-20T08:28:01.835Z,4.33
2022-09-20T08:29:05.879Z,3.50
2022-09-20T08:30:09.227Z,4.03
2022-09-20T08:31:17.008Z,3.63
2022-09-20T08:32:19.201Z,3.60
2022-09-20T08:33:21.444Z,3.43
2022-09-20T08:34:24.218Z,3.50
2022-09-20T08:35:29.612Z,3.50
2022-09-20T08:36:36.353Z,3.70
2022-09-20T08:37:39.349Z,3.50
2022-09-20T08:40:04.789Z,3.37
2022-09-20T08:41:11.915Z,3.70
2022-09-20T08:42:40.353Z,3.60
2022-09-20T08:43:58.340Z,3.43
2022-09-20T08:45:07.613Z,3.50
2022-09-20T08:46:15.081Z,3.87
2022-09-20T08:47:36.864Z,3.23
2022-09-20T08:48:39.702Z,3.20
2022-09-20T08:49:46.041Z,3.53
2022-09-20T08:50:49.618Z,3.67
2022-09-20T08:51:52.767Z,3.50
2022-09-20T08:53:00.659Z,3.57
2022-09-20T08:54:04.825Z,3.37
2022-09-20T08:55:20.220Z,3.40
2022-09-20T08:56:22.991Z,3.50
2022-09-20T08:57:28.792Z,3.70
2022-09-20T08:58:30.973Z,3.90
2022-09-20T08:59:33.649Z,4.00
2022-09-20T09:00:37.820Z,4.17
2022-09-20T09:01:39.982Z,3.83
2022-09-20T09:02:42.160Z,4.27
2022-09-20T09:03:44.338Z,3.80
2022-09-20T09:04:51.677Z,4.20
2022-09-20T09:05:56.091Z,4.17
2022-09-20T09:06:58.426Z,4.60
2022-09-20T09:08:05.055Z,4.03
2022-09-20T09:09:07.911Z,4.23
2022-09-20T09:10:10.266Z,4.23
2022-09-20T09:11:23.536Z,3.60
2022-09-20T09:12:35.750Z,4.13
2022-09-20T09:14:05.193Z,4.43
2022-09-20T09:15:26.568Z,4.10
2022-09-20T09:16:35.272Z,4.13
2022-09-20T09:17:40.557Z,4.27
2022-09-20T09:18:45.075Z,4.10
2022-09-20T09:19:56.159Z,4.23
2022-09-20T09:20:59.400Z,3.90
2022-09-20T09:22:04.540Z,4.10
2022-09-20T09:23:09.290Z,4.00
2022-09-20T09:24:19.419Z,3.90
2022-09-20T09:25:25.501Z,3.50
2022-09-20T09:26:28.747Z,3.90
2022-09-20T09:27:30.918Z,3.63
2022-09-20T09:28:36.999Z,3.47
2022-09-20T09:29:49.872Z,3.70
2022-09-20T09:30:52.117Z,3.50
2022-09-20T09:31:57.199Z,3.57
2022-09-20T09:33:14.601Z,3.30
2022-09-20T09:34:28.540Z,3.53
2022-09-20T09:35:31.911Z,3.27
2022-09-20T09:36:43.981Z,3.20
2022-09-20T09:38:19.673Z,3.30
2022-09-20T09:39:24.281Z,2.93
2022-09-20T09:40:29.770Z,3.27
2022-09-20T09:41:35.759Z,3.30
2022-09-20T09:42:55.838Z,3.10
2022-09-20T09:44:10.077Z,3.43
2022-09-20T09:45:27.127Z,3.13
2022-09-20T09:46:36.286Z,3.60
2022-09-20T09:47:38.691Z,3.30
2022-09-20T09:48:40.916Z,3.60
2022-09-20T09:50:03.800Z,3.37
2022-09-20T09:51:10.536Z,3.30
2022-09-20T09:52:15.839Z,3.43
2022-09-20T09:53:24.895Z,3.40
2022-09-20T09:54:29.561Z,3.33
2022-09-20T09:55:55.935Z,3.05
2022-09-20T09:57:23.478Z,3.15
2022-09-20T09:58:59.113Z,3.50
2022-09-20T10:00:17.802Z,3.03
2022-09-20T10:01:36.405Z,3.25
2022-09-20T10:02:55.715Z,2.67
2022-09-20T10:04:10.785Z,3.22
2022-09-20T10:05:15.686Z,3.38
2022-09-20T10:06:39.236Z,3.33
2022-09-20T10:07:45.799Z,3.42
2022-09-20T10:09:34.056Z,3.30
2022-09-20T10:11:04.358Z,3.15
2022-09-20T10:12:30.259Z,3.28
2022-09-20T10:13:57.847Z,3.20
2022-09-20T10:15:15.409Z,3.40
2022-09-20T10:16:29.324Z,3.30
2022-09-20T10:17:49.650Z,3.72
2022-09-20T10:19:22.836Z,3.53
2022-09-20T10:20:36.880Z,3.50
2022-09-20T10:22:08.344Z,3.40
2022-09-20T10:24:03.703Z,3.80
2022-09-20T10:25:15.661Z,3.28
2022-09-20T10:26:39.588Z,2.88
2022-09-20T10:28:02.343Z,3.03
2022-09-20T10:29:04.431Z,2.97
2022-09-20T10:30:18.769Z,3.20
2022-09-20T10:31:37.974Z,3.17
2022-09-20T10:33:05.561Z,3.20
2022-09-20T10:34:43.609Z,2.80
2022-09-20T10:36:04.762Z,2.95
2022-09-20T10:37:24.207Z,3.22
2022-09-20T10:38:43.685Z,2.83
2022-09-20T10:39:55.464Z,3.13
2022-09-20T10:41:45.245Z,3.00
2022-09-20T10:43:12.074Z,2.92
2022-09-20T10:44:20.045Z,2.78
2022-09-20T10:47:20.440Z,2.92
2022-09-20T10:48:31.881Z,3.10
2022-09-20T10:51:24.390Z,2.40
2022-09-20T10:52:37.886Z,2.08
2022-09-20T10:54:11.351Z,1.85
2022-09-20T10:55:29.007Z,2.00
2022-09-20T10:56:36.980Z,1.77
2022-09-20T10:57:54.722Z,1.75
2022-09-20T10:59:28.583Z,1.75
2022-09-20T11:00:50.875Z,1.65
2022-09-20T11:02:26.706Z,1.80
2022-09-20T11:03:29.758Z,1.95
2022-09-20T11:04:50.257Z,2.28
2022-09-20T11:06:22.582Z,2.20
2022-09-20T11:08:01.272Z,1.92
2022-09-20T11:09:13.862Z,2.20
2022-09-20T11:10:20.689Z,2.40
2022-09-20T11:11:31.184Z,2.30
2022-09-20T11:12:51.405Z,2.47
2022-09-20T11:14:12.706Z,2.42
2022-09-20T11:15:21.444Z,2.53
2022-09-20T11:16:32.170Z,2.60
2022-09-20T11:17:52.832Z,2.33
2022-09-20T11:18:59.346Z,2.00
2022-09-20T11:20:25.950Z,2.22
2022-09-20T11:21:47.079Z,2.08
2022-09-20T11:22:56.819Z,2.20
2022-09-20T11:24:01.823Z,2.40
2022-09-20T11:25:16.758Z,2.15
2022-09-20T11:26:32.138Z,2.50
2022-09-20T11:27:49.711Z,2.60
2022-09-20T11:29:08.841Z,2.50
2022-09-20T11:30:19.010Z,2.40
2022-09-20T11:31:35.720Z,2.20
2022-09-20T11:33:00.613Z,2.33
2022-09-20T11:34:12.478Z,2.20
2022-09-20T11:36:00.589Z,2.30
2022-09-20T11:37:03.592Z,2.00
2022-09-20T11:38:15.753Z,1.90
2022-09-20T11:39:21.077Z,2.28
2022-09-20T11:40:28.624Z,2.30
2022-09-20T11:41:31.880Z,2.28
2022-09-20T11:42:37.074Z,1.83
2022-09-20T11:43:42.869Z,1.95
2022-09-20T11:44:47.875Z,1.85
2022-09-20T11:45:55.613Z,2.15
2022-09-20T11:47:11.749Z,2.00
2022-09-20T11:48:26.413Z,2.10
2022-09-20T11:49:39.679Z,1.88
2022-09-20T11:50:57.308Z,2.30
2022-09-20T11:52:21.357Z,2.00
2022-09-20T11:54:03.100Z,1.90
2022-09-20T11:55:28.149Z,1.70
2022-09-20T11:56:32.631Z,1.85
2022-09-20T11:57:34.932Z,1.90
2022-09-20T11:58:48.907Z,1.80
2022-09-20T12:00:02.895Z,1.90
2022-09-20T12:01:17.457Z,1.70
2022-09-20T12:02:45.257Z,1.73
2022-09-20T12:04:04.259Z,2.00
2022-09-20T12:05:42.047Z,1.90
2022-09-20T12:06:45.377Z,1.60
2022-09-20T12:07:53.872Z,1.60
2022-09-20T12:08:58.693Z,1.50
2022-09-20T12:10:08.576Z,1.65
2022-09-20T12:11:16.159Z,1.73
2022-09-20T12:12:48.288Z,1.35
2022-09-20T12:14:05.137Z,1.70
2022-09-20T12:15:27.504Z,1.70
2022-09-20T12:16:42.576Z,1.45
2022-09-20T12:17:48.249Z,1.60
2022-09-20T12:18:54.069Z,1.60
2022-09-20T12:19:56.225Z,1.58
2022-09-20T12:21:06.051Z,1.65
2022-09-20T12:22:08.201Z,1.60
2022-09-20T12:23:41.325Z,1.90
2022-09-20T12:24:46.843Z,1.60
2022-09-20T12:26:06.122Z,1.88
2022-09-20T12:27:44.009Z,1.90
2022-09-20T12:28:50.063Z,1.75
2022-09-20T12:30:03.419Z,1.70
2022-09-20T12:31:29.637Z,1.75
2022-09-20T12:33:18.426Z,1.92
2022-09-20T12:34:20.624Z,1.83
2022-09-20T12:35:39.172Z,1.90
2022-09-20T12:36:53.533Z,2.08
2022-09-20T12:37:58.273Z,1.67
2022-09-20T12:39:05.360Z,1.70
2022-09-20T12:40:16.443Z,1.80
2022-09-20T12:41:28.143Z,1.80
2022-09-20T12:42:33.220Z,1.50
2022-09-20T12:43:46.727Z,1.70
2022-09-20T12:44:51.866Z,1.40
2022-09-20T12:45:59.884Z,1.73
2022-09-20T12:47:08.514Z,1.80
2022-09-20T12:48:19.898Z,1.80
2022-09-20T12:49:53.240Z,2.17
2022-09-20T12:51:36.717Z,2.47
2022-09-20T12:52:50.796Z,2.38
2022-09-20T12:54:02.645Z,1.98
2022-09-20T12:55:10.253Z,2.50
2022-09-20T12:56:19.985Z,2.13
2022-09-20T12:57:32.435Z,2.40
2022-09-20T12:58:45.318Z,2.00
2022-09-20T12:59:56.609Z,2.00
2022-09-20T13:01:04.985Z,1.90
2022-09-20T13:02:42.792Z,2.00
2022-09-20T13:03:48.932Z,1.90
2022-09-20T13:04:55.527Z,1.88
2022-09-20T13:06:06.804Z,2.05
2022-09-20T13:07:43.343Z,2.20
2022-09-20T13:08:52.136Z,1.98
2022-09-20T13:09:54.728Z,1.60
2022-09-20T13:11:28.142Z,1.92
2022-09-20T13:12:30.706Z,1.80
2022-09-20T13:13:44.247Z,1.73
2022-09-20T13:14:47.567Z,1.90
2022-09-20T13:15:54.492Z,1.80
2022-09-20T13:17:01.364Z,1.90
2022-09-20T13:18:05.748Z,1.73
2022-09-20T13:19:31.593Z,1.75
2022-09-20T13:20:35.299Z,1.50
2022-09-20T13:21:40.752Z,1.70
2022-09-20T13:22:45.507Z,1.60
2022-09-20T13:23:55.236Z,1.40
2022-09-20T13:25:02.137Z,1.40
2022-09-20T13:26:09.499Z,1.38
2022-09-20T13:27:38.060Z,1.40
2022-09-20T13:28:49.639Z,1.30
2022-09-20T13:29:53.441Z,1.60
2022-09-20T13:31:20.571Z,1.70
2022-09-20T13:32:26.912Z,1.45
2022-09-20T13:33:29.071Z,1.30
2022-09-20T13:34:31.598Z,1.48
2022-09-20T13:35:34.236Z,1.20
2022-09-20T13:36:39.252Z,1.60
2022-09-20T13:37:53.780Z,1.20
2022-09-20T13:38:57.816Z,1.10
2022-09-20T13:40:00.441Z,1.25
2022-09-20T13:41:10.589Z,1.20
2022-09-20T13:42:19.430Z,1.20
2022-09-20T13:43:29.734Z,1.20
2022-09-20T13:44:36.998Z,1.13
2022-09-20T13:45:42.595Z,1.15
2022-09-20T13:46:45.791Z,1.08
2022-09-20T13:47:51.679Z,1.00
2022-09-20T13:49:17.606Z,1.00
2022-09-20T13:50:24.075Z,1.10
2022-09-20T13:51:28.069Z,1.13
2022-09-20T13:52:31.859Z,1.00
2022-09-20T13:53:43.001Z,0.90
2022-09-20T13:54:47.166Z,0.73
2022-09-20T13:55:49.469Z,0.50
2022-09-20T13:56:52.382Z,0.80
2022-09-20T13:57:57.579Z,0.68
2022-09-20T13:59:05.506Z,0.88
2022-09-20T14:00:13.657Z,0.73
2022-09-20T14:01:31.142Z,0.80
2022-09-20T14:02:34.394Z,0.88
2022-09-20T14:03:36.747Z,0.60
2022-09-20T14:04:39.406Z,0.90
2022-09-20T14:05:47.258Z,0.80
2022-09-20T14:06:53.660Z,0.82
2022-09-20T14:07:57.677Z,0.80
2022-09-20T14:09:07.083Z,0.60
2022-09-20T14:10:28.913Z,0.70
2022-09-20T14:11:33.796Z,0.70
2022-09-20T14:12:36.664Z,0.70
2022-09-20T14:13:42.829Z,1.00
2022-09-20T14:14:46.600Z,1.00
2022-09-20T14:15:49.794Z,1.02
2022-09-20T14:16:56.953Z,1.02
2022-09-20T14:18:04.854Z,0.73
2022-09-20T14:19:08.356Z,0.90
2022-09-20T14:20:15.566Z,0.80
2022-09-20T14:21:24.644Z,0.68
2022-09-20T14:22:28.786Z,0.63
2022-09-20T14:23:31.700Z,0.70
2022-09-20T14:24:38.417Z,0.80
2022-09-20T14:25:40.994Z,0.85
2022-09-20T14:27:01.120Z,0.98
2022-09-20T14:28:19.863Z,0.90
2022-09-20T14:29:34.330Z,1.10
2022-09-20T14:30:37.232Z,1.20
2022-09-20T14:31:50.223Z,1.42
2022-09-20T14:32:56.322Z,1.20
2022-09-20T14:34:01.516Z,1.00
2022-09-20T14:35:15.462Z,1.05
2022-09-20T14:36:23.557Z,1.13
2022-09-20T14:38:10.339Z,2.73
2022-09-20T14:39:16.639Z,3.20
2022-09-20T14:40:40.531Z,2.67
2022-09-20T14:41:43.736Z,1.80
2022-09-20T14:42:47.964Z,1.57
2022-09-20T14:43:56.698Z,1.25
2022-09-20T14:44:59.954Z,1.40
2022-09-20T14:46:05.167Z,1.10
2022-09-20T14:47:15.430Z,1.30
2022-09-20T14:48:17.524Z,1.30
2022-09-20T14:49:33.764Z,1.20
2022-09-20T14:50:37.872Z,1.17
2022-09-20T14:51:40.165Z,1.23
2022-09-20T14:52:45.455Z,1.30
2022-09-20T14:54:05.955Z,1.30
2022-09-20T14:55:14.068Z,1.30
2022-09-20T14:56:25.922Z,1.20
2022-09-20T14:57:28.944Z,1.47
2022-09-20T14:58:31.723Z,1.30
2022-09-20T14:59:42.095Z,1.50
2022-09-20T15:01:23.358Z,1.40
2022-09-20T15:02:25.980Z,1.50
2022-09-20T15:03:40.676Z,1.43
2022-09-20T15:04:54.434Z,1.60
2022-09-20T15:05:56.889Z,1.40
2022-09-20T15:07:05.180Z,1.40
2022-09-20T15:08:15.388Z,1.63
2022-09-20T15:09:19.904Z,1.77
2022-09-20T15:10:22.569Z,1.43
2022-09-20T15:11:24.752Z,1.50
2022-09-20T15:12:26.898Z,1.93
2022-09-20T15:13:29.092Z,1.77
2022-09-20T15:14:36.530Z,1.70
2022-09-20T15:15:40.014Z,1.70
2022-09-20T15:16:45.348Z,1.50
2022-09-20T15:17:47.983Z,1.70
2022-09-20T15:18:50.103Z,1.70
2022-09-20T15:19:52.278Z,1.50
2022-09-20T15:20:55.144Z,2.00
2022-09-20T15:21:58.782Z,1.70
2022-09-20T15:23:02.051Z,1.80
2022-09-20T15:24:04.418Z,1.70
2022-09-20T15:25:06.981Z,1.80
2022-09-20T15:26:11.365Z,1.80
2022-09-20T15:27:13.713Z,1.60
2022-09-20T15:28:17.580Z,1.80
2022-09-20T15:29:19.903Z,1.60
2022-09-20T15:30:22.515Z,1.50
2022-09-20T15:31:24.726Z,1.60
2022-09-20T15:32:27.678Z,1.40
2022-09-20T15:33:32.595Z,1.60
2022-09-20T15:34:34.870Z,1.40
2022-09-20T15:35:37.930Z,1.60
2022-09-20T15:36:41.823Z,1.53
2022-09-20T15:37:44.587Z,1.70
2022-09-20T15:38:46.722Z,1.60
2022-09-20T15:39:49.693Z,1.60
2022-09-20T15:40:51.867Z,1.63
2022-09-20T15:41:54.334Z,1.60
2022-09-20T15:42:58.240Z,1.83
2022-09-20T15:44:01.703Z,2.00
2022-09-20T15:45:07.409Z,1.60
2022-09-20T15:46:21.243Z,1.90
2022-09-20T15:47:23.465Z,1.77
2022-09-20T15:48:27.902Z,1.90
2022-09-20T15:49:31.219Z,2.10
2022-09-20T15:50:33.369Z,1.80
2022-09-20T15:51:36.633Z,2.10
2022-09-20T15:52:41.676Z,2.10
2022-09-20T15:54:00.635Z,2.00
2022-09-20T15:55:04.166Z,2.10
2022-09-20T15:56:15.461Z,2.20
2022-09-20T15:57:18.606Z,2.20
2022-09-20T15:58:22.100Z,1.83
2022-09-20T15:59:24.334Z,2.10
2022-09-20T16:00:26.480Z,2.00
2022-09-20T16:01:36.918Z,1.80
2022-09-20T16:02:39.146Z,1.80
2022-09-20T16:03:41.298Z,1.70
2022-09-20T16:04:43.473Z,1.83
2022-09-20T16:05:45.968Z,1.70
2022-09-20T16:06:50.925Z,1.83
2022-09-20T16:07:53.087Z,1.57
2022-09-20T16:08:55.769Z,1.47
2022-09-20T16:09:57.945Z,1.80
2022-09-20T16:11:00.790Z,1.50
2022-09-20T16:12:04.726Z,1.60
2022-09-20T16:13:06.862Z,1.50
2022-09-20T16:14:09.230Z,1.50
2022-09-20T16:15:11.389Z,1.70
2022-09-20T16:16:14.237Z,1.83
2022-09-20T16:17:17.795Z,1.90
2022-09-20T16:18:38.456Z,1.90